Time;durP1;ratioP1;P1;durP2;ratioP2;P2;SDS_P1;SDS_P2;PMS_P1;PMS_P2;Temp;Humidity;BMP_temperature;BMP_pressure;BME280_temperature;BME280_humidity;BME280_pressure;Samples;Min_cycle;Max_cycle;Signal;HPM_P1;HPM_P2
2021/04/22 00:00:23;;;;;;;;;;;18.10;62.50;;;;;;5072023;28;20282;-76
2021/04/22 00:02:49;;;;;;;;;;;18.00;62.50;;;;;;5051959;28;19952;-75
2021/04/22 00:05:18;;;;;;;;;;;18.10;62.60;;;;;;5073164;28;20451;-75
2021/04/22 00:07:44;;;;;;;;;;;18.10;62.50;;;;;;5054120;28;19919;-75
2021/04/22 00:10:11;;;;;;;;;;;18.10;62.50;;;;;;5052647;28;19931;-75
2021/04/22 00:12:36;;;;;;;;;;;18.00;62.50;;;;;;5073804;28;19934;-75
2021/04/22 00:15:04;;;;;;;;;;;18.10;62.50;;;;;;5052224;28;19920;-75
2021/04/22 00:17:29;;;;;;;;;;;18.10;62.50;;;;;;5072756;28;20400;-75
2021/04/22 00:19:55;;;;;;;;;;;18.10;62.50;;;;;;5072273;28;19926;-75
2021/04/22 00:22:20;;;;;;;;;;;18.00;62.50;;;;;;5054582;28;20007;-76
2021/04/22 00:24:46;;;;;;;;;;;18.10;62.50;;;;;;5054136;28;19916;-75
2021/04/22 00:27:11;;;;;;;;;;;18.10;62.50;;;;;;5072521;28;19912;-75
2021/04/22 00:29:37;;;;;;;;;;;18.00;62.50;;;;;;5070211;28;20263;-75
2021/04/22 00:32:02;;;;;;;;;;;18.10;62.50;;;;;;5072531;28;19916;-75
2021/04/22 00:34:28;;;;;;;;;;;18.10;62.50;;;;;;5069244;28;19913;-75
2021/04/22 00:36:53;;;;;;;;;;;18.10;62.50;;;;;;5071828;28;19912;-75
2021/04/22 00:39:19;;;;;;;;;;;18.10;62.50;;;;;;5072332;28;19967;-76
2021/04/22 00:41:44;;;;;;;;;;;18.00;62.40;;;;;;5054256;28;20396;-75
2021/04/22 00:44:10;;;;;;;;;;;18.00;62.40;;;;;;5071977;28;20277;-75
2021/04/22 00:46:35;;;;;;;;;;;18.00;62.40;;;;;;5071626;28;19944;-75
2021/04/22 00:49:01;;;;;;;;;;;18.00;62.40;;;;;;5060679;28;20358;-76
2021/04/22 00:51:26;;;;;;;;;;;18.10;62.40;;;;;;5071519;28;19955;-75
2021/04/22 00:53:52;;;;;;;;;;;18.00;62.40;;;;;;5054334;28;19912;-75
2021/04/22 00:56:18;;;;;;;;;;;18.00;62.40;;;;;;5067593;28;19912;-75
2021/04/22 00:58:43;;;;;;;;;;;18.10;62.40;;;;;;5072155;28;19923;-76
2021/04/22 01:01:09;;;;;;;;;;;18.10;62.40;;;;;;5072106;28;20384;-75
2021/04/22 01:03:34;;;;;;;;;;;18.10;62.40;;;;;;5054262;28;19920;-75
2021/04/22 01:06:02;;;;;;;;;;;18.00;62.40;;;;;;5071803;28;19912;-75
2021/04/22 01:08:27;;;;;;;;;;;18.00;62.40;;;;;;5048904;28;19920;-77
2021/04/22 01:10:53;;;;;;;;;;;18.00;62.30;;;;;;5070341;28;20302;-77
2021/04/22 01:13:19;;;;;;;;;;;18.00;62.30;;;;;;5049551;28;20016;-76
2021/04/22 01:15:44;;;;;;;;;;;18.10;62.30;;;;;;5051418;28;19913;-76
2021/04/22 01:18:10;;;;;;;;;;;18.10;62.30;;;;;;5072186;28;19956;-76
2021/04/22 01:20:39;;;;;;;;;;;18.10;62.30;;;;;;5053860;28;19925;-76
2021/04/22 01:23:04;;;;;;;;;;;18.10;62.30;;;;;;5046842;28;20316;-75
2021/04/22 01:25:41;;;;;;;;;;;18.00;62.30;;;;;;5070815;28;20016;-75
2021/04/22 01:28:08;;;;;;;;;;;18.10;62.30;;;;;;5063446;28;19966;-75
2021/04/22 01:30:36;;;;;;;;;;;18.10;62.30;;;;;;5072290;28;19912;-75
2021/04/22 01:33:02;;;;;;;;;;;18.00;62.20;;;;;;5069381;28;19928;-75
2021/04/22 01:35:30;;;;;;;;;;;18.00;62.20;;;;;;5070605;28;20264;-76
2021/04/22 01:37:56;;;;;;;;;;;18.00;62.20;;;;;;5042024;28;19913;-75
2021/04/22 01:40:21;;;;;;;;;;;18.10;62.20;;;;;;5070762;28;19916;-75
2021/04/22 01:42:47;;;;;;;;;;;18.10;62.20;;;;;;5066788;28;20017;-79
2021/04/22 01:45:13;;;;;;;;;;;18.00;62.20;;;;;;5071971;28;19916;-75
2021/04/22 01:47:39;;;;;;;;;;;18.10;62.20;;;;;;5052770;28;19913;-75
2021/04/22 01:50:06;;;;;;;;;;;18.00;62.20;;;;;;5051361;28;20419;-75
2021/04/22 01:52:32;;;;;;;;;;;18.10;62.20;;;;;;5070740;28;19912;-76
2021/04/22 01:54:57;;;;;;;;;;;18.00;62.20;;;;;;5052653;28;19999;-75
2021/04/22 01:57:23;;;;;;;;;;;18.10;62.20;;;;;;5070060;28;19913;-75
2021/04/22 01:59:48;;;;;;;;;;;18.00;62.20;;;;;;5069307;28;19932;-75
2021/04/22 02:02:15;;;;;;;;;;;18.10;62.20;;;;;;5071402;28;19917;-75
2021/04/22 02:04:40;;;;;;;;;;;18.00;62.20;;;;;;5052454;28;19912;-75
2021/04/22 02:07:06;;;;;;;;;;;18.10;62.10;;;;;;5072073;28;20397;-75
2021/04/22 02:09:32;;;;;;;;;;;18.00;62.10;;;;;;5056695;28;19955;-76
2021/04/22 02:11:57;;;;;;;;;;;18.00;62.10;;;;;;5074006;28;20013;-76
2021/04/22 02:14:23;;;;;;;;;;;18.00;62.10;;;;;;5074961;28;20365;-75
2021/04/22 02:16:48;;;;;;;;;;;18.10;62.10;;;;;;5057529;28;20374;-77
2021/04/22 02:19:14;;;;;;;;;;;18.10;62.10;;;;;;5072226;28;19916;-75
2021/04/22 02:21:39;;;;;;;;;;;18.00;62.10;;;;;;5075327;28;19921;-75
2021/04/22 02:24:05;;;;;;;;;;;18.10;62.10;;;;;;5072434;28;19912;-76
2021/04/22 02:26:31;;;;;;;;;;;18.10;62.10;;;;;;5055993;28;19912;-75
2021/04/22 02:28:56;;;;;;;;;;;18.10;62.10;;;;;;5058233;28;20352;-76
2021/04/22 02:31:22;;;;;;;;;;;18.10;62.10;;;;;;5074497;28;20023;-75
2021/04/22 02:33:53;;;;;;;;;;;18.00;62.10;;;;;;5074984;28;19919;-75
2021/04/22 02:36:19;;;;;;;;;;;18.00;62.10;;;;;;5056121;28;19938;-75
2021/04/22 02:38:44;;;;;;;;;;;18.00;62.10;;;;;;5069650;28;19917;-76
2021/04/22 02:41:10;;;;;;;;;;;18.10;62.10;;;;;;5073340;28;19916;-79
2021/04/22 02:43:35;;;;;;;;;;;18.10;62.00;;;;;;5056674;28;19991;-75
2021/04/22 02:46:01;;;;;;;;;;;18.10;62.00;;;;;;5074374;28;19996;-76
2021/04/22 02:48:26;;;;;;;;;;;18.00;62.00;;;;;;5056285;28;19921;-75
2021/04/22 02:50:54;;;;;;;;;;;18.10;62.00;;;;;;5072932;28;20323;-75
2021/04/22 02:53:20;;;;;;;;;;;18.10;62.00;;;;;;5055501;28;20281;-75
2021/04/22 02:55:46;;;;;;;;;;;18.00;62.00;;;;;;5058109;28;20361;-76
2021/04/22 02:58:13;;;;;;;;;;;18.00;62.00;;;;;;5056034;28;19917;-76
2021/04/22 03:00:39;;;;;;;;;;;18.00;61.90;;;;;;5050900;28;20432;-75
2021/04/22 03:03:05;;;;;;;;;;;18.10;62.00;;;;;;5071551;28;19912;-75
2021/04/22 03:05:30;;;;;;;;;;;18.10;61.90;;;;;;5074320;28;20045;-75
2021/04/22 03:07:56;;;;;;;;;;;18.00;61.90;;;;;;5074736;28;19941;-75
2021/04/22 03:10:23;;;;;;;;;;;18.00;61.90;;;;;;5072338;28;19983;-75
2021/04/22 03:12:48;;;;;;;;;;;18.00;61.90;;;;;;5059669;28;19999;-75
2021/04/22 03:15:14;;;;;;;;;;;18.00;61.90;;;;;;5074144;28;20046;-76
2021/04/22 03:17:40;;;;;;;;;;;18.10;61.90;;;;;;5054804;28;20281;-75
2021/04/22 03:20:06;;;;;;;;;;;18.00;61.90;;;;;;5050688;28;19963;-75
2021/04/22 03:22:32;;;;;;;;;;;18.10;61.90;;;;;;5069874;28;20331;-75
2021/04/22 03:24:59;;;;;;;;;;;18.00;61.90;;;;;;5054071;28;19943;-75
2021/04/22 03:27:24;;;;;;;;;;;18.10;61.90;;;;;;5072158;28;19920;-75
2021/04/22 03:29:50;;;;;;;;;;;18.10;61.90;;;;;;5071378;28;19917;-75
2021/04/22 03:32:15;;;;;;;;;;;18.00;61.90;;;;;;5074641;28;20485;-75
2021/04/22 03:34:41;;;;;;;;;;;18.00;61.90;;;;;;5051948;28;20014;-75
2021/04/22 03:37:06;;;;;;;;;;;18.10;61.90;;;;;;5068975;28;19917;-75
2021/04/22 03:39:32;;;;;;;;;;;18.10;61.90;;;;;;5072187;28;19923;-75
2021/04/22 03:41:57;;;;;;;;;;;18.00;61.90;;;;;;5073896;28;19923;-75
2021/04/22 03:44:23;;;;;;;;;;;18.00;61.80;;;;;;5056598;28;19919;-76
2021/04/22 03:46:48;;;;;;;;;;;18.10;61.90;;;;;;5048849;28;19913;-77
2021/04/22 03:49:14;;;;;;;;;;;18.00;61.90;;;;;;5055882;28;20340;-76
2021/04/22 03:51:39;;;;;;;;;;;18.00;61.90;;;;;;5054412;28;19912;-75
2021/04/22 03:54:05;;;;;;;;;;;18.00;61.80;;;;;;5069079;28;19945;-75
2021/04/22 03:56:31;;;;;;;;;;;18.00;61.90;;;;;;5055689;28;20003;-75
2021/04/22 03:58:56;;;;;;;;;;;18.00;61.80;;;;;;5072385;28;19947;-77
2021/04/22 04:01:22;;;;;;;;;;;18.00;61.80;;;;;;5071846;28;19931;-75
2021/04/22 04:03:47;;;;;;;;;;;18.00;61.80;;;;;;5072698;28;20281;-75
2021/04/22 04:06:13;;;;;;;;;;;18.00;61.80;;;;;;5053748;28;20310;-76
2021/04/22 04:08:38;;;;;;;;;;;18.00;61.80;;;;;;5066112;28;19970;-76
2021/04/22 04:11:04;;;;;;;;;;;18.00;61.80;;;;;;5051766;28;20307;-76
2021/04/22 04:13:29;;;;;;;;;;;18.00;61.80;;;;;;5071004;28;20292;-76
2021/04/22 04:15:55;;;;;;;;;;;18.00;61.80;;;;;;5072265;28;19913;-76
2021/04/22 04:18:21;;;;;;;;;;;18.00;61.80;;;;;;5071004;28;19916;-76
2021/04/22 04:20:47;;;;;;;;;;;18.00;61.80;;;;;;5069238;28;19920;-77
2021/04/22 04:23:12;;;;;;;;;;;18.00;61.80;;;;;;5072325;28;19912;-76
2021/04/22 04:25:38;;;;;;;;;;;18.10;61.80;;;;;;5070712;28;19923;-77
2021/04/22 04:28:04;;;;;;;;;;;18.00;61.80;;;;;;5060248;28;19961;-76
2021/04/22 04:30:29;;;;;;;;;;;18.00;61.80;;;;;;5071335;28;19913;-76
2021/04/22 04:32:55;;;;;;;;;;;18.00;61.70;;;;;;5071048;28;20020;-76
2021/04/22 04:35:20;;;;;;;;;;;18.00;61.70;;;;;;5066875;28;19974;-76
2021/04/22 04:37:46;;;;;;;;;;;18.00;61.70;;;;;;5072184;28;19920;-75
2021/04/22 04:40:12;;;;;;;;;;;18.00;61.70;;;;;;5071651;28;19938;-76
2021/04/22 04:42:38;;;;;;;;;;;18.00;61.70;;;;;;5068109;28;19924;-77
2021/04/22 04:45:12;;;;;;;;;;;18.10;61.70;;;;;;5052296;28;19912;-77
2021/04/22 04:47:37;;;;;;;;;;;18.10;61.70;;;;;;5069027;28;19919;-75
2021/04/22 04:50:07;;;;;;;;;;;18.10;61.60;;;;;;5070970;28;20003;-76
2021/04/22 04:52:33;;;;;;;;;;;18.00;61.70;;;;;;5070059;28;19914;-78
2021/04/22 04:54:58;;;;;;;;;;;18.10;61.60;;;;;;5053581;28;20038;-77
2021/04/22 04:57:24;;;;;;;;;;;18.00;61.60;;;;;;5054354;28;20380;-76
2021/04/22 04:59:49;;;;;;;;;;;18.00;61.60;;;;;;5053288;28;19917;-76
2021/04/22 05:02:15;;;;;;;;;;;18.10;61.60;;;;;;5071580;28;19921;-76
2021/04/22 05:04:40;;;;;;;;;;;18.10;61.60;;;;;;5053974;28;19961;-76
2021/04/22 05:07:06;;;;;;;;;;;18.10;61.60;;;;;;5051578;28;20057;-76
2021/04/22 05:09:31;;;;;;;;;;;18.10;61.50;;;;;;5068291;28;20007;-75
2021/04/22 05:11:57;;;;;;;;;;;18.10;61.50;;;;;;5070125;28;19926;-77
2021/04/22 05:14:22;;;;;;;;;;;18.10;61.50;;;;;;5072555;28;20003;-76
2021/04/22 05:16:53;;;;;;;;;;;18.10;61.50;;;;;;5051410;28;19921;-76
2021/04/22 05:19:18;;;;;;;;;;;18.00;61.50;;;;;;5062952;28;19923;-76
2021/04/22 05:21:44;;;;;;;;;;;18.10;61.50;;;;;;5053308;28;19920;-75
2021/04/22 05:24:09;;;;;;;;;;;18.10;61.50;;;;;;5049438;28;19916;-77
2021/04/22 05:26:35;;;;;;;;;;;18.10;61.50;;;;;;5069251;28;19958;-75
2021/04/22 05:29:00;;;;;;;;;;;18.10;61.50;;;;;;5071787;28;19912;-75
2021/04/22 05:31:26;;;;;;;;;;;18.10;61.50;;;;;;5069929;28;19923;-76
2021/04/22 05:33:52;;;;;;;;;;;18.10;61.40;;;;;;5048268;28;20429;-76
2021/04/22 05:36:17;;;;;;;;;;;18.10;61.40;;;;;;5054998;28;19981;-76
2021/04/22 05:38:43;;;;;;;;;;;18.10;61.40;;;;;;5050740;28;19923;-76
2021/04/22 05:41:08;;;;;;;;;;;18.10;61.40;;;;;;5069920;28;20334;-76
2021/04/22 05:43:34;;;;;;;;;;;18.20;61.30;;;;;;5067827;28;19913;-76
2021/04/22 05:46:00;;;;;;;;;;;18.20;61.30;;;;;;5055312;28;19921;-76
2021/04/22 05:48:26;;;;;;;;;;;18.20;61.30;;;;;;5058037;28;19913;-76
2021/04/22 05:50:52;;;;;;;;;;;18.20;61.20;;;;;;5073840;28;19951;-76
2021/04/22 05:53:17;;;;;;;;;;;18.10;61.20;;;;;;5055782;28;19948;-76
2021/04/22 05:55:43;;;;;;;;;;;18.20;61.20;;;;;;5074701;28;19999;-76
2021/04/22 05:58:09;;;;;;;;;;;18.20;61.10;;;;;;5057426;28;19913;-76
2021/04/22 06:00:34;;;;;;;;;;;18.20;61.10;;;;;;5057615;28;20357;-76
2021/04/22 06:03:00;;;;;;;;;;;18.20;61.00;;;;;;5075402;28;19916;-76
2021/04/22 06:05:26;;;;;;;;;;;18.20;61.00;;;;;;5075370;28;19913;-76
2021/04/22 06:07:52;;;;;;;;;;;18.20;61.00;;;;;;5074930;28;19947;-76
2021/04/22 06:10:18;;;;;;;;;;;18.20;61.00;;;;;;5070710;28;19971;-76
2021/04/22 06:12:43;;;;;;;;;;;18.20;61.00;;;;;;5057263;28;19913;-76
2021/04/22 06:15:09;;;;;;;;;;;18.20;61.00;;;;;;5057523;28;19923;-76
2021/04/22 06:17:35;;;;;;;;;;;18.30;60.90;;;;;;5075739;28;20566;-76
2021/04/22 06:20:00;;;;;;;;;;;18.30;60.90;;;;;;5074455;28;20316;-78
2021/04/22 06:22:26;;;;;;;;;;;18.20;60.90;;;;;;5072755;28;19916;-75
2021/04/22 06:24:51;;;;;;;;;;;18.30;60.80;;;;;;5056908;28;19913;-76
2021/04/22 06:27:17;;;;;;;;;;;18.30;60.70;;;;;;5056434;28;19923;-75
2021/04/22 06:29:42;;;;;;;;;;;18.30;60.70;;;;;;5052774;28;20483;-76
2021/04/22 06:32:08;;;;;;;;;;;18.30;60.60;;;;;;5071670;28;19923;-76
2021/04/22 06:34:33;;;;;;;;;;;18.30;60.60;;;;;;5074371;28;20003;-76
2021/04/22 06:36:59;;;;;;;;;;;18.30;60.60;;;;;;5073231;28;19923;-76
2021/04/22 06:39:26;;;;;;;;;;;18.30;60.50;;;;;;5074376;28;20258;-76
2021/04/22 06:41:52;;;;;;;;;;;18.30;60.50;;;;;;5073750;28;19924;-76
2021/04/22 06:44:18;;;;;;;;;;;18.30;60.50;;;;;;5056151;28;19916;-76
2021/04/22 06:46:44;;;;;;;;;;;18.30;60.50;;;;;;5073182;28;19913;-76
2021/04/22 06:49:10;;;;;;;;;;;18.30;60.50;;;;;;5046826;28;19913;-77
2021/04/22 06:51:35;;;;;;;;;;;18.40;60.50;;;;;;5056342;28;19920;-76
2021/04/22 06:54:01;;;;;;;;;;;18.40;60.40;;;;;;5066966;28;20400;-78
2021/04/22 06:56:26;;;;;;;;;;;18.40;60.30;;;;;;5051873;28;20007;-76
2021/04/22 06:58:53;;;;;;;;;;;18.50;60.20;;;;;;5054968;28;20324;-76
2021/04/22 07:01:19;;;;;;;;;;;18.50;60.20;;;;;;5074478;28;19916;-76
2021/04/22 07:03:44;;;;;;;;;;;18.40;60.20;;;;;;5050913;28;19938;-75
2021/04/22 07:06:10;;;;;;;;;;;18.40;60.20;;;;;;5055802;28;19951;-76
2021/04/22 07:08:36;;;;;;;;;;;18.40;60.30;;;;;;5072084;28;19912;-76
2021/04/22 07:11:01;;;;;;;;;;;18.30;60.30;;;;;;5054887;28;19921;-76
2021/04/22 07:13:27;;;;;;;;;;;18.40;60.40;;;;;;5073813;28;20312;-76
2021/04/22 07:15:52;;;;;;;;;;;18.40;60.40;;;;;;5068763;28;19912;-76
2021/04/22 07:18:18;;;;;;;;;;;18.30;60.40;;;;;;5050017;28;19916;-76
2021/04/22 07:20:43;;;;;;;;;;;18.30;60.40;;;;;;5074054;28;19920;-76
2021/04/22 07:23:13;;;;;;;;;;;18.40;60.40;;;;;;5053559;28;19963;-76
2021/04/22 07:25:38;;;;;;;;;;;18.40;60.40;;;;;;5073121;28;19961;-77
2021/04/22 07:28:05;;;;;;;;;;;18.40;60.30;;;;;;5054833;28;19921;-76
2021/04/22 07:30:30;;;;;;;;;;;18.40;60.20;;;;;;5073340;28;19912;-76
2021/04/22 07:32:56;;;;;;;;;;;18.40;60.20;;;;;;5070776;28;19916;-76
2021/04/22 07:35:22;;;;;;;;;;;18.50;60.00;;;;;;5073617;28;19919;-76
2021/04/22 07:37:48;;;;;;;;;;;18.60;59.90;;;;;;5072078;28;19913;-76
2021/04/22 07:40:18;;;;;;;;;;;18.60;59.80;;;;;;5072124;28;20017;-75
2021/04/22 07:42:44;;;;;;;;;;;18.50;59.80;;;;;;5056324;28;19916;-75
2021/04/22 07:45:10;;;;;;;;;;;18.60;59.80;;;;;;5073138;28;19920;-76
2021/04/22 07:47:35;;;;;;;;;;;18.60;59.80;;;;;;5072814;28;19919;-78
2021/04/22 07:50:01;;;;;;;;;;;18.50;59.80;;;;;;5049392;28;20315;-76
2021/04/22 07:52:26;;;;;;;;;;;18.60;59.80;;;;;;5072285;28;20377;-76
2021/04/22 07:54:53;;;;;;;;;;;18.60;59.80;;;;;;5056217;28;20349;-76
2021/04/22 07:57:18;;;;;;;;;;;18.60;59.80;;;;;;5055337;28;20288;-76
2021/04/22 07:59:44;;;;;;;;;;;18.60;59.70;;;;;;5071712;28;20018;-80
2021/04/22 08:02:11;;;;;;;;;;;18.60;59.70;;;;;;5066197;28;20011;-76
2021/04/22 08:04:37;;;;;;;;;;;18.60;59.70;;;;;;5051276;28;19921;-77
2021/04/22 08:07:03;;;;;;;;;;;18.60;59.70;;;;;;5072987;28;19912;-76
2021/04/22 08:09:28;;;;;;;;;;;18.60;59.70;;;;;;5048235;28;20305;-77
2021/04/22 08:11:54;;;;;;;;;;;18.60;59.70;;;;;;5073199;28;19995;-76
2021/04/22 08:14:20;;;;;;;;;;;18.60;59.70;;;;;;5052737;28;19920;-77
2021/04/22 08:16:45;;;;;;;;;;;18.60;59.70;;;;;;5070336;28;19920;-76
2021/04/22 08:19:11;;;;;;;;;;;18.60;59.70;;;;;;5072856;28;19917;-77
2021/04/22 08:21:36;;;;;;;;;;;18.60;59.70;;;;;;5054467;28;19928;-76
2021/04/22 08:24:02;;;;;;;;;;;18.70;59.60;;;;;;5054523;28;20372;-77
2021/04/22 08:26:28;;;;;;;;;;;18.70;59.50;;;;;;5073430;28;20019;-76
2021/04/22 08:28:53;;;;;;;;;;;18.70;59.40;;;;;;5055321;28;19913;-79
2021/04/22 08:31:24;;;;;;;;;;;18.70;59.40;;;;;;5052400;28;20059;-76
2021/04/22 08:33:52;;;;;;;;;;;18.80;59.30;;;;;;5072214;28;20398;-76
2021/04/22 08:36:18;;;;;;;;;;;18.80;59.20;;;;;;5054849;28;20270;-78
2021/04/22 08:38:44;;;;;;;;;;;18.80;59.20;;;;;;5050779;28;19925;-75
2021/04/22 08:41:09;;;;;;;;;;;18.80;59.10;;;;;;5051141;28;19916;-77
2021/04/22 08:43:36;;;;;;;;;;;18.80;58.90;;;;;;5054988;28;20380;-77
2021/04/22 08:46:02;;;;;;;;;;;18.80;58.90;;;;;;5068819;28;19912;-79
2021/04/22 08:48:28;;;;;;;;;;;18.80;59.00;;;;;;5059369;28;19920;-81
2021/04/22 08:50:54;;;;;;;;;;;18.80;58.90;;;;;;5054523;28;19924;-77
2021/04/22 08:53:22;;;;;;;;;;;18.90;58.90;;;;;;5051159;28;20479;-77
2021/04/22 08:55:47;;;;;;;;;;;18.90;58.90;;;;;;5060524;28;20400;-77
2021/04/22 08:58:14;;;;;;;;;;;18.90;58.80;;;;;;5072856;28;19960;-77
2021/04/22 09:00:47;;;;;;;;;;;18.90;58.80;;;;;;5054728;28;19916;-77
2021/04/22 09:03:13;;;;;;;;;;;18.90;58.80;;;;;;5050607;28;20345;-77
2021/04/22 09:05:38;;;;;;;;;;;18.90;58.80;;;;;;5071756;28;19920;-77
2021/04/22 09:08:04;;;;;;;;;;;18.90;58.80;;;;;;5057657;28;20335;-77
2021/04/22 09:10:29;;;;;;;;;;;18.90;58.90;;;;;;5071417;28;19973;-77
2021/04/22 09:13:04;;;;;;;;;;;18.90;58.70;;;;;;5056223;28;20421;-76
2021/04/22 09:15:31;;;;;;;;;;;18.90;58.70;;;;;;5069008;28;19916;-76
2021/04/22 09:17:57;;;;;;;;;;;19.00;58.70;;;;;;5070351;28;19958;-76
2021/04/22 09:20:33;;;;;;;;;;;18.90;58.70;;;;;;5052212;28;19963;-77
2021/04/22 09:22:58;;;;;;;;;;;18.90;58.80;;;;;;5069780;28;19923;-76
2021/04/22 09:25:25;;;;;;;;;;;18.80;58.90;;;;;;5051601;28;20025;-77
2021/04/22 09:27:56;;;;;;;;;;;18.80;59.20;;;;;;5044653;28;19920;-77
2021/04/22 09:30:30;;;;;;;;;;;18.80;59.20;;;;;;5071685;28;20270;-77
2021/04/22 09:32:55;;;;;;;;;;;18.80;59.20;;;;;;5072048;28;19913;-77
2021/04/22 09:35:24;;;;;;;;;;;18.80;59.30;;;;;;5067448;28;19912;-78
2021/04/22 09:37:50;;;;;;;;;;;18.80;59.40;;;;;;5064970;28;19994;-76
2021/04/22 09:40:36;;;;;;;;;;;18.90;59.20;;;;;;5071640;28;19923;-76
2021/04/22 09:43:03;;;;;;;;;;;18.80;59.20;;;;;;5066379;28;19920;-77
2021/04/22 09:45:30;;;;;;;;;;;18.80;59.20;;;;;;5070655;28;19912;-77
2021/04/22 09:47:56;;;;;;;;;;;18.80;59.40;;;;;;5052020;28;19955;-77
2021/04/22 09:50:26;;;;;;;;;;;18.80;59.60;;;;;;5071575;28;19958;-76
2021/04/22 09:52:54;;;;;;;;;;;18.70;59.70;;;;;;5071254;28;19986;-76
2021/04/22 09:55:22;;;;;;;;;;;18.70;59.70;;;;;;5053167;28;19959;-76
2021/04/22 09:57:48;;;;;;;;;;;18.80;59.70;;;;;;5055157;28;20299;-82
2021/04/22 10:00:27;;;;;;;;;;;18.80;59.60;;;;;;5070507;28;19960;-82
2021/04/22 10:02:56;;;;;;;;;;;18.80;59.40;;;;;;5069802;28;19916;-77
2021/04/22 10:05:22;;;;;;;;;;;18.90;59.40;;;;;;5069263;28;19912;-77
2021/04/22 10:07:48;;;;;;;;;;;19.00;59.10;;;;;;5069404;28;19912;-76
2021/04/22 10:10:31;;;;;;;;;;;19.00;59.00;;;;;;5048948;28;20369;-77
2021/04/22 10:13:04;;;;;;;;;;;19.00;59.10;;;;;;5071293;28;19920;-76
2021/04/22 10:15:32;;;;;;;;;;;19.00;59.20;;;;;;5054792;28;19920;-76
2021/04/22 10:18:02;;;;;;;;;;;19.00;59.20;;;;;;5068366;28;20419;-76
2021/04/22 10:20:29;;;;;;;;;;;19.00;59.00;;;;;;5053297;28;19921;-76
2021/04/22 10:22:55;;;;;;;;;;;19.00;59.10;;;;;;5053304;28;19913;-76
2021/04/22 10:25:22;;;;;;;;;;;19.00;58.90;;;;;;5053397;28;19927;-76
2021/04/22 10:27:48;;;;;;;;;;;19.00;59.00;;;;;;5070875;28;20384;-76
2021/04/22 10:30:18;;;;;;;;;;;19.00;59.10;;;;;;5070569;28;19920;-76
2021/04/22 10:32:44;;;;;;;;;;;19.00;59.10;;;;;;5070896;28;20273;-76
2021/04/22 10:35:11;;;;;;;;;;;19.00;59.20;;;;;;5074056;28;19981;-76
2021/04/22 10:37:39;;;;;;;;;;;19.00;59.20;;;;;;5070850;28;19916;-76
2021/04/22 10:40:05;;;;;;;;;;;19.00;59.20;;;;;;5072700;28;19916;-76
2021/04/22 10:42:32;;;;;;;;;;;19.00;59.30;;;;;;5073987;28;20451;-76
2021/04/22 10:45:02;;;;;;;;;;;19.00;59.10;;;;;;5056622;28;19916;-77
2021/04/22 10:47:28;;;;;;;;;;;19.00;59.20;;;;;;5047849;28;20348;-77
2021/04/22 10:49:54;;;;;;;;;;;19.00;59.10;;;;;;5054952;28;20377;-76
2021/04/22 10:52:21;;;;;;;;;;;19.00;59.00;;;;;;5055526;28;19920;-76
2021/04/22 10:54:47;;;;;;;;;;;19.00;59.10;;;;;;5074279;28;19982;-77
2021/04/22 10:57:14;;;;;;;;;;;19.00;59.10;;;;;;5072297;28;19920;-76
2021/04/22 10:59:44;;;;;;;;;;;19.00;59.10;;;;;;5056131;28;19955;-76
2021/04/22 11:02:14;;;;;;;;;;;19.10;59.10;;;;;;5072514;28;20334;-76
2021/04/22 11:04:40;;;;;;;;;;;19.10;59.00;;;;;;5055417;28;19913;-76
2021/04/22 11:07:14;;;;;;;;;;;19.10;59.10;;;;;;5052537;28;20336;-76
2021/04/22 11:09:40;;;;;;;;;;;19.00;59.00;;;;;;5068523;28;20364;-77
2021/04/22 11:12:06;;;;;;;;;;;19.10;58.90;;;;;;5073992;28;19920;-76
2021/04/22 11:14:40;;;;;;;;;;;19.10;59.10;;;;;;5051071;28;19920;-77
2021/04/22 11:17:06;;;;;;;;;;;19.10;59.00;;;;;;5053635;28;19961;-76
2021/04/22 11:19:33;;;;;;;;;;;19.10;58.90;;;;;;5073055;28;19923;-76
2021/04/22 11:22:00;;;;;;;;;;;19.10;58.90;;;;;;5072744;28;19974;-78
2021/04/22 11:24:34;;;;;;;;;;;19.10;58.90;;;;;;5055634;28;19913;-76
2021/04/22 11:27:06;;;;;;;;;;;19.10;58.90;;;;;;5069609;28;19912;-76
2021/04/22 11:29:45;;;;;;;;;;;19.10;58.90;;;;;;5072340;28;19966;-77
2021/04/22 11:32:16;;;;;;;;;;;19.10;59.00;;;;;;5060826;28;19913;-76
2021/04/22 11:34:41;;;;;;;;;;;19.10;58.90;;;;;;5055985;28;19912;-76
2021/04/22 11:37:18;;;;;;;;;;;19.10;58.90;;;;;;5073499;28;19920;-76
2021/04/22 11:39:50;;;;;;;;;;;19.10;59.00;;;;;;5073396;28;20331;-77
2021/04/22 11:42:15;;;;;;;;;;;19.10;59.00;;;;;;5056192;28;19916;-76
2021/04/22 11:44:42;;;;;;;;;;;19.10;59.00;;;;;;5053559;28;20350;-77
2021/04/22 11:47:14;;;;;;;;;;;19.00;59.20;;;;;;5073102;28;20623;-75
2021/04/22 11:49:40;;;;;;;;;;;19.10;59.20;;;;;;5055653;28;19974;-76
2021/04/22 11:52:21;;;;;;;;;;;19.00;59.20;;;;;;5054784;28;19916;-76
2021/04/22 11:54:47;;;;;;;;;;;19.00;59.20;;;;;;5053790;28;19917;-76
2021/04/22 11:57:14;;;;;;;;;;;19.10;59.10;;;;;;5072636;28;19962;-76
2021/04/22 11:59:39;;;;;;;;;;;19.10;59.10;;;;;;5048724;28;20407;-77
2021/04/22 12:02:07;;;;;;;;;;;19.10;59.20;;;;;;5071618;28;20049;-76
2021/04/22 12:04:43;;;;;;;;;;;19.10;59.10;;;;;;5052145;28;19948;-76
2021/04/22 12:07:11;;;;;;;;;;;19.10;59.10;;;;;;5068331;28;19935;-77
2021/04/22 12:09:41;;;;;;;;;;;19.20;59.00;;;;;;5041071;28;20208;-77
2021/04/22 12:12:09;;;;;;;;;;;19.20;59.00;;;;;;5031297;28;20000;-76
2021/04/22 12:14:34;;;;;;;;;;;19.10;59.00;;;;;;5028165;28;19964;-76
2021/04/22 12:17:00;;;;;;;;;;;19.20;59.10;;;;;;5030045;28;20674;-76
2021/04/22 12:19:27;;;;;;;;;;;19.10;59.10;;;;;;5030732;28;20329;-76
2021/04/22 12:21:58;;;;;;;;;;;19.10;59.10;;;;;;5023901;28;19917;-76
2021/04/22 12:24:24;;;;;;;;;;;19.20;59.00;;;;;;5026390;28;19936;-76
2021/04/22 12:26:50;;;;;;;;;;;19.20;58.80;;;;;;5025453;28;20027;-76
2021/04/22 12:29:16;;;;;;;;;;;19.20;58.70;;;;;;5031370;28;19913;-76
2021/04/22 12:31:47;;;;;;;;;;;19.20;58.60;;;;;;5029744;28;19917;-76
2021/04/22 12:34:13;;;;;;;;;;;19.20;58.70;;;;;;5042057;28;19917;-77
2021/04/22 12:36:51;;;;;;;;;;;19.20;58.60;;;;;;5030686;28;19920;-76
2021/04/22 12:39:27;;;;;;;;;;;19.20;58.60;;;;;;5030060;28;19917;-76
2021/04/22 12:42:09;;;;;;;;;;;19.30;58.70;;;;;;5019044;28;19917;-76
2021/04/22 12:44:36;;;;;;;;;;;19.20;58.70;;;;;;5027430;28;20302;-75
2021/04/22 12:47:11;;;;;;;;;;;19.30;58.60;;;;;;5041784;28;19945;-76
2021/04/22 12:49:46;;;;;;;;;;;19.30;58.50;;;;;;5028394;28;19920;-77
2021/04/22 12:52:11;;;;;;;;;;;19.30;58.50;;;;;;5025306;28;19917;-76
2021/04/22 12:54:37;;;;;;;;;;;19.30;58.70;;;;;;5030949;28;19996;-75
2021/04/22 12:57:09;;;;;;;;;;;19.20;58.70;;;;;;5028349;28;19913;-77
2021/04/22 12:59:34;;;;;;;;;;;19.20;58.80;;;;;;5028170;28;19940;-75
2021/04/22 13:02:00;;;;;;;;;;;19.20;58.80;;;;;;5030296;28;20362;-76
2021/04/22 13:04:25;;;;;;;;;;;19.20;58.70;;;;;;5028253;28;19952;-76
2021/04/22 13:06:51;;;;;;;;;;;19.20;58.80;;;;;;5032586;28;19960;-76
2021/04/22 13:09:19;;;;;;;;;;;19.20;58.90;;;;;;5033087;28;19927;-76
2021/04/22 13:11:49;;;;;;;;;;;19.20;58.90;;;;;;5072034;28;20350;-76
2021/04/22 13:14:16;;;;;;;;;;;19.10;58.90;;;;;;5053120;28;19917;-75
2021/04/22 13:16:45;;;;;;;;;;;19.10;58.90;;;;;;5051042;28;20132;-78
2021/04/22 13:19:18;;;;;;;;;;;19.10;58.90;;;;;;5048708;28;19916;-77
2021/04/22 13:21:52;;;;;;;;;;;19.10;58.80;;;;;;5046642;28;19916;-76
2021/04/22 13:24:19;;;;;;;;;;;19.10;58.80;;;;;;5069635;28;20361;-76
2021/04/22 13:26:52;;;;;;;;;;;19.10;59.00;;;;;;5047441;28;19920;-76
2021/04/22 13:29:21;;;;;;;;;;;19.10;59.00;;;;;;5050496;28;19925;-77
2021/04/22 13:31:47;;;;;;;;;;;19.10;58.90;;;;;;5069712;28;19917;-75
2021/04/22 13:34:14;;;;;;;;;;;19.10;58.90;;;;;;5060309;28;19926;-76
2021/04/22 13:36:41;;;;;;;;;;;19.10;58.90;;;;;;5054368;28;19920;-76
2021/04/22 13:39:07;;;;;;;;;;;19.10;59.00;;;;;;5069442;28;20346;-76
2021/04/22 13:41:33;;;;;;;;;;;19.10;58.90;;;;;;5068364;28;19923;-77
2021/04/22 13:44:00;;;;;;;;;;;19.20;58.80;;;;;;5051934;28;20574;-77
2021/04/22 13:46:30;;;;;;;;;;;19.20;58.70;;;;;;5051226;28;19917;-76
2021/04/22 13:48:57;;;;;;;;;;;19.20;58.70;;;;;;5068769;28;20574;-76
2021/04/22 13:51:24;;;;;;;;;;;19.10;58.80;;;;;;5070701;28;19913;-78
2021/04/22 13:53:49;;;;;;;;;;;19.10;58.80;;;;;;5071150;28;19990;-76
2021/04/22 13:56:15;;;;;;;;;;;19.10;58.80;;;;;;5054457;28;20377;-76
2021/04/22 13:58:43;;;;;;;;;;;19.10;58.80;;;;;;5050870;28;20270;-76
2021/04/22 14:01:19;;;;;;;;;;;19.10;58.80;;;;;;5070781;28;19916;-76
2021/04/22 14:03:45;;;;;;;;;;;19.10;58.90;;;;;;5055484;28;20297;-75
2021/04/22 14:06:10;;;;;;;;;;;19.10;58.90;;;;;;5057613;28;19918;-76
2021/04/22 14:08:36;;;;;;;;;;;19.10;58.90;;;;;;5056238;28;20299;-76
2021/04/22 14:11:14;;;;;;;;;;;19.10;59.00;;;;;;5074819;28;19920;-75
2021/04/22 14:13:41;;;;;;;;;;;19.10;59.00;;;;;;5075012;28;20738;-76